sensor_id;sensor_type;location;lat;lon;timestamp;pressure;altitude;pressure_sealevel;temperature;humidity
74429;BME280;62860;52.134;23.714;2022-09-28T00:03:55;1008.4;;;13.7;78.6
74429;BME280;62860;52.134;23.714;2022-09-28T00:08:53;1008.4;;;13.7;78.7
74429;BME280;62860;52.134;23.714;2022-09-28T00:13:31;1008.4;;;13.7;78.7
74429;BME280;62860;52.134;23.714;2022-09-28T00:18:31;1008.3;;;13.7;78.5
74429;BME280;62860;52.134;23.714;2022-09-28T00:23:31;1008.3;;;13.7;78.3
74429;BME280;62860;52.134;23.714;2022-09-28T00:28:56;1008.2;;;13.7;78.1
74429;BME280;62860;52.134;23.714;2022-09-28T00:33:32;1008.2;;;13.7;77.9
74429;BME280;62860;52.134;23.714;2022-09-28T00:38:51;1008.1;;;13.7;77.5
74429;BME280;62860;52.134;23.714;2022-09-28T00:43:51;1008;;;13.8;77
74429;BME280;62860;52.134;23.714;2022-09-28T00:49:06;1008;;;13.8;76.8
74429;BME280;62860;52.134;23.714;2022-09-28T00:54:05;1008;;;13.8;76.6
74429;BME280;62860;52.134;23.714;2022-09-28T00:58:43;1007.8;;;13.8;76.7
74429;BME280;62860;52.134;23.714;2022-09-28T01:03:32;1007.8;;;13.7;76.8
74429;BME280;62860;52.134;23.714;2022-09-28T01:08:41;1007.7;;;13.7;77
74429;BME280;62860;52.134;23.714;2022-09-28T01:13:43;1007.6;;;13.7;77.3
74429;BME280;62860;52.134;23.714;2022-09-28T01:19:00;1007.6;;;13.7;77.3
74429;BME280;62860;52.134;23.714;2022-09-28T01:29:03;1007.6;;;13.6;77.1
74429;BME280;62860;52.134;23.714;2022-09-28T01:34:14;1007.5;;;13.6;77.1
74429;BME280;62860;52.134;23.714;2022-09-28T01:38:57;1007.4;;;13.5;77.1
74429;BME280;62860;52.134;23.714;2022-09-28T01:44:07;1007.4;;;13.5;77.1
74429;BME280;62860;52.134;23.714;2022-09-28T01:49:10;1007.4;;;13.5;77
74429;BME280;62860;52.134;23.714;2022-09-28T01:53:32;1007.3;;;13.5;77
74429;BME280;62860;52.134;23.714;2022-09-28T01:58:46;1007.3;;;13.5;76.9
74429;BME280;62860;52.134;23.714;2022-09-28T02:04:05;1007.3;;;13.4;77
74429;BME280;62860;52.134;23.714;2022-09-28T02:09:07;1007.3;;;13.5;76.8
74429;BME280;62860;52.134;23.714;2022-09-28T02:14:02;1007.2;;;13.5;76.7
74429;BME280;62860;52.134;23.714;2022-09-28T02:18:55;1007.1;;;13.5;76.6
74429;BME280;62860;52.134;23.714;2022-09-28T02:24:00;1007;;;13.5;76.3
74429;BME280;62860;52.134;23.714;2022-09-28T02:28:53;1007;;;13.4;76.2
74429;BME280;62860;52.134;23.714;2022-09-28T02:33:53;1006.9;;;13.4;76.3
74429;BME280;62860;52.134;23.714;2022-09-28T02:38:53;1006.9;;;13.4;76.3
74429;BME280;62860;52.134;23.714;2022-09-28T02:43:51;1006.9;;;13.3;76.2
74429;BME280;62860;52.134;23.714;2022-09-28T02:49:05;1006.9;;;13.3;76.1
74429;BME280;62860;52.134;23.714;2022-09-28T03:00:16;1007.2;;;13.4;76.2
74429;BME280;62860;52.134;23.714;2022-09-28T03:05:05;1007.2;;;13.4;76.1
74429;BME280;62860;52.134;23.714;2022-09-28T03:09:00;1007.1;;;13.4;76.2
74429;BME280;62860;52.134;23.714;2022-09-28T03:13:51;1007;;;13.3;76.4
74429;BME280;62860;52.134;23.714;2022-09-28T03:19:07;1006.9;;;13.2;76.8
74429;BME280;62860;52.134;23.714;2022-09-28T03:24:09;1006.8;;;13.2;77.4
74429;BME280;62860;52.134;23.714;2022-09-28T03:28:53;1006.7;;;13;78.4
74429;BME280;62860;52.134;23.714;2022-09-28T03:33:31;1006.7;;;12.8;79.7
74429;BME280;62860;52.134;23.714;2022-09-28T03:38:31;1006.6;;;12.6;80.6
74429;BME280;62860;52.134;23.714;2022-09-28T03:43:59;1006.5;;;12.5;81.3
74429;BME280;62860;52.134;23.714;2022-09-28T03:48:49;1006.4;;;12.4;81.6
74429;BME280;62860;52.134;23.714;2022-09-28T03:53:31;1006.4;;;12.3;82
74429;BME280;62860;52.134;23.714;2022-09-28T03:58:41;1006.4;;;12.3;82.4
74429;BME280;62860;52.134;23.714;2022-09-28T04:04:03;1006.4;;;12.3;82.6
74429;BME280;62860;52.134;23.714;2022-09-28T04:08:59;1006.4;;;12.3;82.4
74429;BME280;62860;52.134;23.714;2022-09-28T04:14:11;1006.4;;;12.3;82.5
74429;BME280;62860;52.134;23.714;2022-09-28T04:19:11;1006.3;;;12.4;82.7
74429;BME280;62860;52.134;23.714;2022-09-28T04:23:41;1006.3;;;12.4;82.5
74429;BME280;62860;52.134;23.714;2022-09-28T04:28:42;1006.2;;;12.4;82.5
74429;BME280;62860;52.134;23.714;2022-09-28T04:33:37;1006.2;;;12.4;82.5
74429;BME280;62860;52.134;23.714;2022-09-28T04:39:12;1006.2;;;12.4;82.8
74429;BME280;62860;52.134;23.714;2022-09-28T04:43:57;1006.2;;;12.4;82.9
74429;BME280;62860;52.134;23.714;2022-09-28T04:49:09;1006.2;;;12.3;83.3
74429;BME280;62860;52.134;23.714;2022-09-28T04:53:57;1006.2;;;12.3;83.5
74429;BME280;62860;52.134;23.714;2022-09-28T04:58:39;1006.2;;;12.3;83.6
74429;BME280;62860;52.134;23.714;2022-09-28T05:03:53;1006.2;;;12.3;83.9
74429;BME280;62860;52.134;23.714;2022-09-28T05:08:59;1006.1;;;12.4;83.7
74429;BME280;62860;52.134;23.714;2022-09-28T05:13:44;1006.1;;;12.3;84
74429;BME280;62860;52.134;23.714;2022-09-28T05:18:43;1006.1;;;12.3;84.2
74429;BME280;62860;52.134;23.714;2022-09-28T05:23:31;1006.2;;;12.4;84.3
74429;BME280;62860;52.134;23.714;2022-09-28T05:29:09;1006.2;;;12.4;84.2
74429;BME280;62860;52.134;23.714;2022-09-28T05:34:11;1006.2;;;12.4;84.3
74429;BME280;62860;52.134;23.714;2022-09-28T05:38:51;1006.2;;;12.4;84.3
74429;BME280;62860;52.134;23.714;2022-09-28T05:43:31;1006.3;;;12.4;84.4
74429;BME280;62860;52.134;23.714;2022-09-28T05:49:09;1006.4;;;12.4;84.6
74429;BME280;62860;52.134;23.714;2022-09-28T05:54:09;1006.5;;;12.4;84.7
74429;BME280;62860;52.134;23.714;2022-09-28T05:58:51;1006.5;;;12.5;84.7
74429;BME280;62860;52.134;23.714;2022-09-28T06:03:37;1006.6;;;12.5;84.3
74429;BME280;62860;52.134;23.714;2022-09-28T06:08:31;1006.8;;;12.5;83.8
74429;BME280;62860;52.134;23.714;2022-09-28T06:13:52;1006.9;;;12.2;82.3
74429;BME280;62860;52.134;23.714;2022-09-28T06:18:37;1007;;;11.9;82.9
74429;BME280;62860;52.134;23.714;2022-09-28T06:23:31;1007;;;11.8;83.3
74429;BME280;62860;52.134;23.714;2022-09-28T06:29:12;1007;;;11.7;83.1
74429;BME280;62860;52.134;23.714;2022-09-28T06:34:01;1007;;;11.6;83.3
74429;BME280;62860;52.134;23.714;2022-09-28T06:38:51;1007;;;11.5;83.3
74429;BME280;62860;52.134;23.714;2022-09-28T06:44:09;1007;;;11.4;83.6
74429;BME280;62860;52.134;23.714;2022-09-28T06:48:53;1006.9;;;11.4;82.9
74429;BME280;62860;52.134;23.714;2022-09-28T06:53:31;1006.9;;;11.4;83
74429;BME280;62860;52.134;23.714;2022-09-28T06:58:31;1006.8;;;11.5;83.5
74429;BME280;62860;52.134;23.714;2022-09-28T07:03:47;1006.9;;;11.6;83.6
74429;BME280;62860;52.134;23.714;2022-09-28T07:09:11;1006.9;;;11.6;83.8
74429;BME280;62860;52.134;23.714;2022-09-28T07:13:59;1007;;;11.6;83.3
74429;BME280;62860;52.134;23.714;2022-09-28T07:19:09;1007.1;;;11.5;83.6
74429;BME280;62860;52.134;23.714;2022-09-28T07:23:57;1007.1;;;11.3;83.4
74429;BME280;62860;52.134;23.714;2022-09-28T07:29:01;1007.1;;;11.5;83.7
74429;BME280;62860;52.134;23.714;2022-09-28T07:33:53;1007.1;;;11.6;83.3
74429;BME280;62860;52.134;23.714;2022-09-28T07:38:41;1007.1;;;11.6;83.1
74429;BME280;62860;52.134;23.714;2022-09-28T07:43:41;1007.2;;;11.7;82.6
74429;BME280;62860;52.134;23.714;2022-09-28T07:48:41;1007.3;;;11.7;82.9
74429;BME280;62860;52.134;23.714;2022-09-28T07:53:41;1007.4;;;11.8;82.8
74429;BME280;62860;52.134;23.714;2022-09-28T07:59:11;1007.3;;;12;82.3
74429;BME280;62860;52.134;23.714;2022-09-28T08:04:09;1007.2;;;12.2;81.2
74429;BME280;62860;52.134;23.714;2022-09-28T08:08:51;1007.3;;;12.2;80.3
74429;BME280;62860;52.134;23.714;2022-09-28T08:13:51;1007.4;;;12.3;81.2
74429;BME280;62860;52.134;23.714;2022-09-28T08:19:13;1007.4;;;12.6;79.6
74429;BME280;62860;52.134;23.714;2022-09-28T08:24:14;1007.5;;;12.8;78.6
74429;BME280;62860;52.134;23.714;2022-09-28T08:28:31;1007.5;;;13.1;78.3
74429;BME280;62860;52.134;23.714;2022-09-28T08:33:39;1007.6;;;13.5;78.4
74429;BME280;62860;52.134;23.714;2022-09-28T08:38:31;1007.7;;;13.8;77.3
74429;BME280;62860;52.134;23.714;2022-09-28T08:44:14;1007.7;;;14.1;76.5
74429;BME280;62860;52.134;23.714;2022-09-28T08:48:58;1007.7;;;14.2;74.9
74429;BME280;62860;52.134;23.714;2022-09-28T08:54:23;1007.7;;;14;75.8
74429;BME280;62860;52.134;23.714;2022-09-28T08:58:50;1007.7;;;14.1;74.4
74429;BME280;62860;52.134;23.714;2022-09-28T09:03:51;1007.7;;;14.2;75.1
74429;BME280;62860;52.134;23.714;2022-09-28T09:09:20;1007.7;;;14.1;74.3
74429;BME280;62860;52.134;23.714;2022-09-28T09:14:12;1007.7;;;14;75.7
74429;BME280;62860;52.134;23.714;2022-09-28T09:19:16;1007.7;;;13.9;74.8
74429;BME280;62860;52.134;23.714;2022-09-28T09:24:16;1007.7;;;13.8;75.5
74429;BME280;62860;52.134;23.714;2022-09-28T09:29:00;1007.8;;;14;75.7
74429;BME280;62860;52.134;23.714;2022-09-28T09:33:52;1007.8;;;14;75.3
74429;BME280;62860;52.134;23.714;2022-09-28T09:39:06;1007.8;;;13.9;76.1
74429;BME280;62860;52.134;23.714;2022-09-28T09:44:22;1007.8;;;13.7;75.5
74429;BME280;62860;52.134;23.714;2022-09-28T09:48:50;1007.9;;;13.6;76.5
74429;BME280;62860;52.134;23.714;2022-09-28T09:53:47;1007.9;;;13.8;75.5
74429;BME280;62860;52.134;23.714;2022-09-28T09:58:56;1007.9;;;14.4;75.5
74429;BME280;62860;52.134;23.714;2022-09-28T10:03:53;1007.8;;;14.7;75.6
74429;BME280;62860;52.134;23.714;2022-09-28T10:09:02;1007.9;;;14.8;73.8
74429;BME280;62860;52.134;23.714;2022-09-28T10:13:57;1007.9;;;14.6;73.2
74429;BME280;62860;52.134;23.714;2022-09-28T10:18:31;1007.9;;;14.4;72.8
74429;BME280;62860;52.134;23.714;2022-09-28T10:23:41;1008;;;14.4;72.7
74429;BME280;62860;52.134;23.714;2022-09-28T10:28:54;1008;;;14.3;71.8
74429;BME280;62860;52.134;23.714;2022-09-28T10:34:10;1008;;;14.1;73
74429;BME280;62860;52.134;23.714;2022-09-28T10:38:55;1008;;;14.1;72.6
74429;BME280;62860;52.134;23.714;2022-09-28T10:43:57;1008.1;;;14.1;71.9
74429;BME280;62860;52.134;23.714;2022-09-28T10:48:54;1008.1;;;14.1;71.7
74429;BME280;62860;52.134;23.714;2022-09-28T10:54:13;1008.1;;;14.2;71.8
74429;BME280;62860;52.134;23.714;2022-09-28T10:59:37;1008.2;;;14.3;72
74429;BME280;62860;52.134;23.714;2022-09-28T11:03:55;1008.2;;;14.4;71.7
74429;BME280;62860;52.134;23.714;2022-09-28T11:08:43;1008.2;;;14.6;70.3
74429;BME280;62860;52.134;23.714;2022-09-28T11:13:36;1008.2;;;14.8;69.3
74429;BME280;62860;52.134;23.714;2022-09-28T11:19:04;1008.2;;;15;67.7
74429;BME280;62860;52.134;23.714;2022-09-28T11:24:06;1008.1;;;15.1;67
74429;BME280;62860;52.134;23.714;2022-09-28T11:28:50;1008.1;;;15.4;65.5
74429;BME280;62860;52.134;23.714;2022-09-28T11:34:04;1008;;;15.7;65.4
74429;BME280;62860;52.134;23.714;2022-09-28T11:39:10;1008;;;15.5;64.1
74429;BME280;62860;52.134;23.714;2022-09-28T11:49:26;1008;;;15.3;65.1
74429;BME280;62860;52.134;23.714;2022-09-28T11:54:23;1008;;;15.3;63.1
74429;BME280;62860;52.134;23.714;2022-09-28T11:58:50;1008;;;15.2;60.9
74429;BME280;62860;52.134;23.714;2022-09-28T12:03:34;1008.1;;;15.2;62.6
74429;BME280;62860;52.134;23.714;2022-09-28T12:09:02;1008.1;;;15.2;60.1
74429;BME280;62860;52.134;23.714;2022-09-28T12:14:16;1008.1;;;15.2;61.1
74429;BME280;62860;52.134;23.714;2022-09-28T12:18:58;1008.1;;;15.3;60.1
74429;BME280;62860;52.134;23.714;2022-09-28T12:24:01;1008.1;;;15.2;60.1
74429;BME280;62860;52.134;23.714;2022-09-28T12:29:00;1008.2;;;15.2;61.5
74429;BME280;62860;52.134;23.714;2022-09-28T12:33:51;1008.2;;;15.3;59.9
74429;BME280;62860;52.134;23.714;2022-09-28T12:38:47;1008.2;;;15.4;59.9
74429;BME280;62860;52.134;23.714;2022-09-28T12:43:57;1008.3;;;15.5;60.2
74429;BME280;62860;52.134;23.714;2022-09-28T12:55:02;1008.3;;;16;57.4
74429;BME280;62860;52.134;23.714;2022-09-28T12:59:00;1008.3;;;16.1;57.6
74429;BME280;62860;52.134;23.714;2022-09-28T13:04:23;1008.3;;;16.2;56.7
74429;BME280;62860;52.134;23.714;2022-09-28T13:09:06;1008.4;;;16.1;57.1
74429;BME280;62860;52.134;23.714;2022-09-28T13:13:36;1008.5;;;15.8;56.2
74429;BME280;62860;52.134;23.714;2022-09-28T13:18:56;1008.5;;;15.4;55.9
74429;BME280;62860;52.134;23.714;2022-09-28T13:24:16;1008.7;;;15.2;57.6
74429;BME280;62860;52.134;23.714;2022-09-28T13:29:16;1008.8;;;14.9;60.8
74429;BME280;62860;52.134;23.714;2022-09-28T13:33:42;1008.8;;;14.9;62.7
74429;BME280;62860;52.134;23.714;2022-09-28T13:38:47;1008.8;;;14.9;63.3
74429;BME280;62860;52.134;23.714;2022-09-28T13:44:07;1008.9;;;14.6;63.1
74429;BME280;62860;52.134;23.714;2022-09-28T13:48:34;1008.9;;;14.4;64.7
74429;BME280;62860;52.134;23.714;2022-09-28T13:54:08;1008.9;;;14.4;66.5
74429;BME280;62860;52.134;23.714;2022-09-28T13:58:51;1008.8;;;14.6;66.1
74429;BME280;62860;52.134;23.714;2022-09-28T14:14:42;1008.9;;;14.6;67.7
74429;BME280;62860;52.134;23.714;2022-09-28T14:19:12;1008.9;;;14.9;66.6
74429;BME280;62860;52.134;23.714;2022-09-28T14:29:45;1008.9;;;14.9;64
74429;BME280;62860;52.134;23.714;2022-09-28T14:33:43;1008.9;;;14.7;64.2
74429;BME280;62860;52.134;23.714;2022-09-28T14:38:33;1009;;;14.5;65.8
74429;BME280;62860;52.134;23.714;2022-09-28T14:44:10;1008.9;;;14.3;67
74429;BME280;62860;52.134;23.714;2022-09-28T14:54:14;1009;;;13.9;68.7
74429;BME280;62860;52.134;23.714;2022-09-28T14:58:59;1009;;;13.9;70
74429;BME280;62860;52.134;23.714;2022-09-28T15:04:02;1009;;;13.8;69.5
74429;BME280;62860;52.134;23.714;2022-09-28T15:08:53;1009;;;13.9;68.3
74429;BME280;62860;52.134;23.714;2022-09-28T15:14:03;1009;;;13.9;68.5
74429;BME280;62860;52.134;23.714;2022-09-28T15:18:38;1009;;;13.9;68.9
74429;BME280;62860;52.134;23.714;2022-09-28T15:23:36;1009.1;;;13.7;68.5
74429;BME280;62860;52.134;23.714;2022-09-28T15:28:42;1009.1;;;13.6;69.9
74429;BME280;62860;52.134;23.714;2022-09-28T15:34:43;1009.2;;;13.4;70.7
74429;BME280;62860;52.134;23.714;2022-09-28T15:39:11;1009.2;;;13.2;71.3
74429;BME280;62860;52.134;23.714;2022-09-28T15:43:32;1009.3;;;13;71.8
74429;BME280;62860;52.134;23.714;2022-09-28T15:48:54;1009.2;;;12.9;72.5
74429;BME280;62860;52.134;23.714;2022-09-28T15:54:12;1009.2;;;12.8;72.8
74429;BME280;62860;52.134;23.714;2022-09-28T15:59:16;1009.3;;;12.6;72.9
74429;BME280;62860;52.134;23.714;2022-09-28T16:03:57;1009.4;;;12.5;73.8
74429;BME280;62860;52.134;23.714;2022-09-28T16:08:38;1009.4;;;12.3;74.3
74429;BME280;62860;52.134;23.714;2022-09-28T16:13:54;1009.5;;;12.1;74.7
74429;BME280;62860;52.134;23.714;2022-09-28T16:18:45;1009.5;;;11.9;75.1
74429;BME280;62860;52.134;23.714;2022-09-28T16:23:37;1009.6;;;11.8;75.4
74429;BME280;62860;52.134;23.714;2022-09-28T16:28:49;1009.6;;;11.6;76.1
74429;BME280;62860;52.134;23.714;2022-09-28T16:34:08;1009.6;;;11.4;76.7
74429;BME280;62860;52.134;23.714;2022-09-28T16:39:01;1009.7;;;11.3;76.9
74429;BME280;62860;52.134;23.714;2022-09-28T16:43:55;1009.6;;;11.2;77
74429;BME280;62860;52.134;23.714;2022-09-28T16:49:13;1009.5;;;11.1;77.3
74429;BME280;62860;52.134;23.714;2022-09-28T16:54:35;1009.4;;;10.9;77.5
74429;BME280;62860;52.134;23.714;2022-09-28T16:58:41;1009.4;;;10.9;77.4
74429;BME280;62860;52.134;23.714;2022-09-28T17:03:55;1009.5;;;10.8;76.9
74429;BME280;62860;52.134;23.714;2022-09-28T17:08:31;1009.5;;;10.6;77.1
74429;BME280;62860;52.134;23.714;2022-09-28T17:14:11;1009.5;;;10.5;77.3
74429;BME280;62860;52.134;23.714;2022-09-28T17:18:59;1009.4;;;10.4;77
74429;BME280;62860;52.134;23.714;2022-09-28T17:24:09;1009.4;;;10.3;77.3
74429;BME280;62860;52.134;23.714;2022-09-28T17:28:58;1009.5;;;10.2;77.7
74429;BME280;62860;52.134;23.714;2022-09-28T17:33:59;1009.5;;;10.1;77.7
74429;BME280;62860;52.134;23.714;2022-09-28T17:38:51;1009.6;;;10;77.8
74429;BME280;62860;52.134;23.714;2022-09-28T17:43:57;1009.7;;;9.9;78
74429;BME280;62860;52.134;23.714;2022-09-28T17:48:41;1009.8;;;9.9;78
74429;BME280;62860;52.134;23.714;2022-09-28T17:53:34;1009.8;;;9.8;77.9
74429;BME280;62860;52.134;23.714;2022-09-28T17:58:41;1009.9;;;9.8;78.1
74429;BME280;62860;52.134;23.714;2022-09-28T18:03:59;1009.9;;;9.7;78.4
74429;BME280;62860;52.134;23.714;2022-09-28T18:09:11;1010;;;9.6;78.3
74429;BME280;62860;52.134;23.714;2022-09-28T18:13:59;1010;;;9.6;78.2
74429;BME280;62860;52.134;23.714;2022-09-28T18:18:44;1009.9;;;9.5;78.6
74429;BME280;62860;52.134;23.714;2022-09-28T18:23:51;1009.8;;;9.5;78.7
74429;BME280;62860;52.134;23.714;2022-09-28T18:29:09;1009.8;;;9.5;78.5
74429;BME280;62860;52.134;23.714;2022-09-28T18:34:07;1009.6;;;9.4;78.5
74429;BME280;62860;52.134;23.714;2022-09-28T18:38:53;1009.6;;;9.4;78.7
74429;BME280;62860;52.134;23.714;2022-09-28T18:43:37;1009.4;;;9.3;78.8
74429;BME280;62860;52.134;23.714;2022-09-28T18:48:31;1009.1;;;9.3;79.1
74429;BME280;62860;52.134;23.714;2022-09-28T18:54:00;1009.3;;;9.4;79.2
74429;BME280;62860;52.134;23.714;2022-09-28T18:58:33;1009.4;;;9.4;79.3
74429;BME280;62860;52.134;23.714;2022-09-28T19:04:11;1009.5;;;9.4;79.1
74429;BME280;62860;52.134;23.714;2022-09-28T19:08:59;1009.5;;;9.5;79.1
74429;BME280;62860;52.134;23.714;2022-09-28T19:14:09;1009.4;;;9.6;79.1
74429;BME280;62860;52.134;23.714;2022-09-28T19:18:55;1009.4;;;9.8;79.2
74429;BME280;62860;52.134;23.714;2022-09-28T19:24:11;1009.4;;;9.9;79
74429;BME280;62860;52.134;23.714;2022-09-28T19:29:12;1009.5;;;10;78.7
74429;BME280;62860;52.134;23.714;2022-09-28T19:33:42;1009.5;;;10.2;78.6
74429;BME280;62860;52.134;23.714;2022-09-28T19:38:39;1009.5;;;10.3;78.6
74429;BME280;62860;52.134;23.714;2022-09-28T19:43:38;1009.6;;;10.4;78.6
74429;BME280;62860;52.134;23.714;2022-09-28T19:49:12;1009.6;;;10.6;78.3
74429;BME280;62860;52.134;23.714;2022-09-28T19:54:00;1009.7;;;10.7;78
74429;BME280;62860;52.134;23.714;2022-09-28T19:58:58;1009.6;;;10.9;77.8
74429;BME280;62860;52.134;23.714;2022-09-28T20:03:56;1009.6;;;11;77.3
74429;BME280;62860;52.134;23.714;2022-09-28T20:08:31;1009.6;;;11.1;76.9
74429;BME280;62860;52.134;23.714;2022-09-28T20:13:41;1009.6;;;11.2;76.8
74429;BME280;62860;52.134;23.714;2022-09-28T20:18:59;1009.6;;;11.2;76.7
74429;BME280;62860;52.134;23.714;2022-09-28T20:24:01;1009.5;;;11.3;76.4
74429;BME280;62860;52.134;23.714;2022-09-28T20:28:31;1009.4;;;11.3;75.7
74429;BME280;62860;52.134;23.714;2022-09-28T20:33:32;1009.4;;;11.4;75.3
74429;BME280;62860;52.134;23.714;2022-09-28T20:39:11;1009.4;;;11.4;75.4
74429;BME280;62860;52.134;23.714;2022-09-28T20:44:00;1009.5;;;11.4;75.8
74429;BME280;62860;52.134;23.714;2022-09-28T20:48:31;1009.4;;;11.4;75.3
74429;BME280;62860;52.134;23.714;2022-09-28T20:53:52;1009.5;;;11.3;75.6
74429;BME280;62860;52.134;23.714;2022-09-28T20:59:11;1009.4;;;11.3;76
74429;BME280;62860;52.134;23.714;2022-09-28T21:03:49;1009.2;;;11.2;76.3
74429;BME280;62860;52.134;23.714;2022-09-28T21:08:58;1009.3;;;11.1;76.9
74429;BME280;62860;52.134;23.714;2022-09-28T21:14:04;1009.3;;;11.1;77.1
74429;BME280;62860;52.134;23.714;2022-09-28T21:18:57;1009.1;;;11.1;77.4
74429;BME280;62860;52.134;23.714;2022-09-28T21:24:09;1009.2;;;11;77.5
74429;BME280;62860;52.134;23.714;2022-09-28T21:29:10;1009.1;;;11;77.9
74429;BME280;62860;52.134;23.714;2022-09-28T21:33:50;1009.1;;;11;77.9
74429;BME280;62860;52.134;23.714;2022-09-28T21:38:39;1009.1;;;11.1;78
74429;BME280;62860;52.134;23.714;2022-09-28T21:43:31;1009.1;;;11.1;78
74429;BME280;62860;52.134;23.714;2022-09-28T21:48:58;1009.2;;;11.2;77.8
74429;BME280;62860;52.134;23.714;2022-09-28T21:53:37;1009.1;;;11.3;77.4
74429;BME280;62860;52.134;23.714;2022-09-28T21:58:49;1009.1;;;11.3;77
74429;BME280;62860;52.134;23.714;2022-09-28T22:04:10;1009.1;;;11.4;76.7
74429;BME280;62860;52.134;23.714;2022-09-28T22:09:08;1009.1;;;11.4;76.2
74429;BME280;62860;52.134;23.714;2022-09-28T22:13:58;1009.1;;;11.5;76
74429;BME280;62860;52.134;23.714;2022-09-28T22:19:11;1009.1;;;11.6;75.9
74429;BME280;62860;52.134;23.714;2022-09-28T22:24:04;1009.2;;;11.6;75.9
74429;BME280;62860;52.134;23.714;2022-09-28T22:29:09;1009.2;;;11.7;75.8
74429;BME280;62860;52.134;23.714;2022-09-28T22:33:31;1009.2;;;11.6;75.9
74429;BME280;62860;52.134;23.714;2022-09-28T22:38:39;1009.1;;;11.7;75.7
74429;BME280;62860;52.134;23.714;2022-09-28T22:44:09;1009.1;;;11.7;75.6
74429;BME280;62860;52.134;23.714;2022-09-28T22:48:31;1009;;;11.7;75.3
74429;BME280;62860;52.134;23.714;2022-09-28T22:54:05;1008.9;;;11.7;75.3
74429;BME280;62860;52.134;23.714;2022-09-28T22:58:58;1009;;;11.6;75.4
74429;BME280;62860;52.134;23.714;2022-09-28T23:04:01;1009.1;;;11.6;75.5
74429;BME280;62860;52.134;23.714;2022-09-28T23:08:52;1009.1;;;11.5;75.5
74429;BME280;62860;52.134;23.714;2022-09-28T23:13:58;1009.1;;;11.5;75.7
74429;BME280;62860;52.134;23.714;2022-09-28T23:18:32;1009.2;;;11.5;75.8
74429;BME280;62860;52.134;23.714;2022-09-28T23:23:42;1009.1;;;11.4;75.7
74429;BME280;62860;52.134;23.714;2022-09-28T23:28:31;1009;;;11.4;75.8
74429;BME280;62860;52.134;23.714;2022-09-28T23:34:06;1009.1;;;11.4;75.9
74429;BME280;62860;52.134;23.714;2022-09-28T23:39:04;1009.2;;;11.5;75.9
74429;BME280;62860;52.134;23.714;2022-09-28T23:43:32;1009.1;;;11.5;75.8
74429;BME280;62860;52.134;23.714;2022-09-28T23:48:50;1009.1;;;11.4;75.9
74429;BME280;62860;52.134;23.714;2022-09-28T23:54:08;1009.2;;;11.4;76.1
74429;BME280;62860;52.134;23.714;2022-09-28T23:59:06;1009.2;;;11.3;76.1
